Time;durP1;ratioP1;P1;durP2;ratioP2;P2;SDS_P1;SDS_P2;PMS_P1;PMS_P2;Temp;Humidity;BMP_temperature;BMP_pressure;BME280_temperature;BME280_humidity;BME280_pressure;Samples;Min_cycle;Max_cycle;Signal;HPM_P1;HPM_P2
2023/04/25 00:00:06;;;;;;;2.90;0.50;;;6.90;94.60;;;;;;4946461;28;20058;-84
2023/04/25 00:02:38;;;;;;;1.40;0.60;;;6.80;94.90;;;;;;4962454;28;20455;-84
2023/04/25 00:05:05;;;;;;;1.95;0.40;;;6.80;94.70;;;;;;4977627;28;20035;-84
2023/04/25 00:07:34;;;;;;;1.13;0.32;;;6.80;94.70;;;;;;4946244;28;20058;-84
2023/04/25 00:10:02;;;;;;;2.08;0.68;;;6.70;94.70;;;;;;4961763;28;20119;-85
2023/04/25 00:12:29;;;;;;;2.15;0.50;;;6.70;94.90;;;;;;4961701;28;20061;-84
2023/04/25 00:14:56;;;;;;;1.02;0.38;;;6.70;94.90;;;;;;4961521;28;20051;-84
2023/04/25 00:17:24;;;;;;;3.40;1.05;;;6.60;94.90;;;;;;4961604;28;20046;-84
2023/04/25 00:19:54;;;;;;;1.95;0.43;;;6.60;94.90;;;;;;4959569;28;20058;-84
2023/04/25 00:22:24;;;;;;;4.40;0.75;;;6.60;94.90;;;;;;4977018;28;20046;-84
2023/04/25 00:24:53;;;;;;;5.95;0.82;;;6.60;95.00;;;;;;4961572;28;20046;-84
2023/04/25 00:27:20;;;;;;;6.68;1.00;;;6.50;95.00;;;;;;4977622;28;20051;-84
2023/04/25 00:29:47;;;;;;;1.85;0.55;;;6.50;95.00;;;;;;4945109;28;20043;-84
2023/04/25 00:32:17;;;;;;;2.47;0.98;;;6.50;95.00;;;;;;4961380;28;20058;-84
2023/04/25 00:34:44;;;;;;;2.72;0.98;;;6.40;95.00;;;;;;4961471;28;20129;-84
2023/04/25 00:37:12;;;;;;;2.67;0.70;;;6.40;95.10;;;;;;4961532;28;20236;-83
2023/04/25 00:39:42;;;;;;;2.60;1.02;;;6.40;95.10;;;;;;4961618;28;20105;-85
2023/04/25 00:42:15;;;;;;;2.53;0.75;;;6.40;95.10;;;;;;4961202;28;20046;-85
2023/04/25 00:44:47;;;;;;;2.72;0.60;;;6.40;95.10;;;;;;4977099;28;20047;-84
2023/04/25 00:47:15;;;;;;;1.60;0.50;;;6.40;95.10;;;;;;4960759;28;20130;-85
2023/04/25 00:49:48;;;;;;;3.80;0.70;;;6.40;95.10;;;;;;4961438;28;20046;-84
2023/04/25 00:52:15;;;;;;;2.50;0.65;;;6.40;95.10;;;;;;4960816;28;20038;-84
2023/04/25 00:54:45;;;;;;;3.38;0.75;;;6.40;95.10;;;;;;4973273;28;20047;-84
2023/04/25 00:57:15;;;;;;;4.05;0.80;;;6.50;95.00;;;;;;4961046;28;20061;-84
2023/04/25 00:59:46;;;;;;;2.08;1.05;;;6.50;95.00;;;;;;4960423;28;20046;-84
2023/04/25 01:02:17;;;;;;;3.42;0.70;;;6.50;95.00;;;;;;4960990;28;20043;-84
2023/04/25 01:04:48;;;;;;;4.65;0.85;;;6.50;95.00;;;;;;4961528;28;20074;-84
2023/04/25 01:07:16;;;;;;;3.40;0.90;;;6.40;95.10;;;;;;4960786;28;20495;-84
2023/04/25 01:09:43;;;;;;;3.53;0.65;;;6.40;95.10;;;;;;4959064;28;20557;-84
2023/04/25 01:12:14;;;;;;;2.03;0.50;;;6.40;95.10;;;;;;4960529;28;20062;-84
2023/04/25 01:14:42;;;;;;;2.85;0.68;;;6.40;95.20;;;;;;4976726;28;20055;-84
2023/04/25 01:17:10;;;;;;;4.05;0.77;;;6.30;95.20;;;;;;4960836;28;20078;-84
2023/04/25 01:19:37;;;;;;;4.43;1.40;;;6.30;95.30;;;;;;4960796;28;20495;-84
2023/04/25 01:22:05;;;;;;;3.13;0.77;;;6.30;95.30;;;;;;4940998;29;20051;-84
2023/04/25 01:24:33;;;;;;;3.22;0.88;;;6.30;95.30;;;;;;4960506;28;20047;-84
2023/04/25 01:27:04;;;;;;;4.07;0.80;;;6.40;95.30;;;;;;4943614;28;20043;-85
2023/04/25 01:29:37;;;;;;;2.97;0.70;;;6.40;95.30;;;;;;4961216;28;20038;-84
2023/04/25 01:32:08;;;;;;;1.77;0.70;;;6.40;95.30;;;;;;4961268;28;20050;-84
2023/04/25 01:34:35;;;;;;;6.95;1.55;;;6.40;95.30;;;;;;4960884;28;20058;-84
2023/04/25 01:37:02;;;;;;;4.22;0.80;;;6.40;95.30;;;;;;4957258;28;20500;-83
2023/04/25 01:39:30;;;;;;;3.60;1.17;;;6.40;95.30;;;;;;4934962;28;20055;-83
2023/04/25 01:41:59;;;;;;;6.22;1.52;;;6.40;95.20;;;;;;4957171;28;20117;-83
2023/04/25 01:44:32;;;;;;;3.25;1.08;;;6.50;95.30;;;;;;4975498;28;20101;-84
2023/04/25 01:46:59;;;;;;;7.03;2.08;;;6.50;95.30;;;;;;4975347;28;20163;-84
2023/04/25 01:49:28;;;;;;;6.05;1.23;;;6.50;95.30;;;;;;4959763;28;20061;-84
2023/04/25 01:51:56;;;;;;;3.88;1.00;;;6.50;95.30;;;;;;4975981;28;20057;-83
2023/04/25 01:54:23;;;;;;;4.13;1.25;;;6.50;95.20;;;;;;4956514;29;20059;-84
2023/04/25 01:56:51;;;;;;;7.68;1.40;;;6.50;95.20;;;;;;4971545;28;20074;-84
2023/04/25 01:59:21;;;;;;;5.57;1.45;;;6.50;95.20;;;;;;4974468;28;20054;-84
2023/04/25 02:02:12;;;;;;;4.20;1.20;;;6.50;95.20;;;;;;4962923;28;20051;-84
2023/04/25 02:04:48;;;;;;;4.05;1.00;;;6.50;95.20;;;;;;4960302;28;20129;-84
2023/04/25 02:07:15;;;;;;;8.07;1.60;;;6.50;95.10;;;;;;4975406;28;20043;-83
2023/04/25 02:09:49;;;;;;;6.80;1.38;;;6.50;95.20;;;;;;4960076;28;20049;-84
2023/04/25 02:12:18;;;;;;;6.80;1.33;;;6.50;95.20;;;;;;4959701;28;20447;-84
2023/04/25 02:15:04;;;;;;;3.22;0.95;;;6.50;95.20;;;;;;4961758;28;20137;-84
2023/04/25 02:17:41;;;;;;;7.13;1.55;;;6.50;95.20;;;;;;4960862;28;20059;-84
2023/04/25 02:20:12;;;;;;;6.10;1.38;;;6.50;95.20;;;;;;4959466;28;20046;-84
2023/04/25 02:22:42;;;;;;;4.68;1.10;;;6.50;95.20;;;;;;4975081;28;20058;-83
2023/04/25 02:25:16;;;;;;;4.15;0.77;;;6.50;95.20;;;;;;4959971;28;20043;-84
2023/04/25 02:27:46;;;;;;;3.90;1.67;;;6.40;95.20;;;;;;4957580;28;20094;-84
2023/04/25 02:30:16;;;;;;;4.32;0.90;;;6.50;95.20;;;;;;4956713;28;20447;-84
2023/04/25 02:33:36;;;;;;;3.20;0.98;;;6.50;95.20;;;;;;4943961;28;20530;-86
2023/04/25 02:37:00;;;;;;;5.47;1.17;;;6.50;95.20;;;;;;4833358;29;20054;-83
2023/04/25 02:39:29;;;;;;;4.45;0.90;;;6.50;95.10;;;;;;4852762;29;20057;-83
2023/04/25 02:41:56;;;;;;;6.20;1.23;;;6.40;95.10;;;;;;4903936;29;20044;-83
2023/04/25 02:44:23;;;;;;;5.07;1.48;;;6.40;95.10;;;;;;4888857;29;20047;-83
2023/04/25 02:46:51;;;;;;;8.63;1.88;;;6.40;95.10;;;;;;4904002;29;20047;-84
2023/04/25 02:49:18;;;;;;;12.90;2.05;;;6.30;95.20;;;;;;4903808;29;20473;-83
2023/04/25 02:51:45;;;;;;;8.55;2.03;;;6.30;95.20;;;;;;4907405;29;20051;-83
2023/04/25 02:54:12;;;;;;;6.85;1.88;;;6.20;95.20;;;;;;4918317;29;20051;-83
2023/04/25 02:56:43;;;;;;;4.18;1.52;;;6.10;95.20;;;;;;4889741;29;20155;-82
2023/04/25 02:59:21;;;;;;;4.65;1.60;;;6.00;95.20;;;;;;4904395;29;20460;-83
2023/04/25 03:01:49;;;;;;;6.88;1.30;;;6.00;95.30;;;;;;4873022;29;20148;-83
2023/04/25 03:04:19;;;;;;;7.13;1.30;;;6.00;95.30;;;;;;4903785;29;20039;-83
2023/04/25 03:06:47;;;;;;;6.95;1.65;;;6.00;95.30;;;;;;4903498;29;20069;-83
2023/04/25 03:09:14;;;;;;;4.72;1.10;;;5.90;95.20;;;;;;4902928;29;20079;-82
2023/04/25 03:11:42;;;;;;;4.53;0.93;;;5.90;95.30;;;;;;4918983;29;20142;-83
2023/04/25 03:14:09;;;;;;;3.72;1.13;;;5.90;95.30;;;;;;4947747;28;20043;-83
2023/04/25 03:16:37;;;;;;;2.58;0.68;;;5.80;95.30;;;;;;4974542;28;20061;-83
2023/04/25 03:19:04;;;;;;;7.15;1.08;;;5.80;95.30;;;;;;4974167;28;20066;-83
2023/04/25 03:21:33;;;;;;;3.40;0.85;;;5.80;95.40;;;;;;4974445;28;20121;-83
2023/04/25 03:24:02;;;;;;;3.20;0.68;;;5.70;95.40;;;;;;4958192;28;20411;-83
2023/04/25 03:26:30;;;;;;;2.40;0.95;;;5.70;95.40;;;;;;4958627;28;20115;-83
2023/04/25 03:28:59;;;;;;;3.42;0.63;;;5.70;95.40;;;;;;4939397;29;20056;-83
2023/04/25 03:31:33;;;;;;;2.33;0.82;;;5.70;95.40;;;;;;4952253;28;20081;-83
2023/04/25 03:34:00;;;;;;;2.35;0.50;;;5.70;95.40;;;;;;4957818;28;20066;-83
2023/04/25 03:36:28;;;;;;;4.13;0.60;;;5.70;95.40;;;;;;4973853;28;20407;-83
2023/04/25 03:38:58;;;;;;;4.15;1.00;;;5.60;95.40;;;;;;4925125;28;20487;-83
2023/04/25 03:41:27;;;;;;;4.37;0.80;;;5.60;95.40;;;;;;4942608;28;20495;-83
2023/04/25 03:44:03;;;;;;;3.13;0.73;;;5.60;95.40;;;;;;4962611;28;20346;-83
2023/04/25 03:46:33;;;;;;;2.85;0.93;;;5.60;95.50;;;;;;4958119;28;20487;-83
2023/04/25 03:49:00;;;;;;;4.07;0.85;;;5.60;95.40;;;;;;4974378;28;20053;-83
2023/04/25 03:51:44;;;;;;;2.60;0.55;;;5.60;95.40;;;;;;4960399;28;20491;-83
2023/04/25 03:54:11;;;;;;;2.25;0.60;;;5.70;95.30;;;;;;4973998;28;20039;-83
2023/04/25 03:56:54;;;;;;;4.65;0.50;;;5.70;95.30;;;;;;4954544;29;20043;-84
2023/04/25 03:59:26;;;;;;;2.38;0.60;;;5.70;95.20;;;;;;4948157;28;20092;-83
2023/04/25 04:01:56;;;;;;;4.85;0.90;;;5.70;95.20;;;;;;4947098;29;20058;-83
2023/04/25 04:04:26;;;;;;;4.90;1.20;;;5.60;95.20;;;;;;4957500;28;20047;-84
2023/04/25 04:06:56;;;;;;;3.80;0.93;;;5.60;95.30;;;;;;4965201;28;20042;-83
2023/04/25 04:09:27;;;;;;;4.13;0.88;;;5.50;95.30;;;;;;4939152;28;20050;-82
2023/04/25 04:11:56;;;;;;;3.80;0.75;;;5.50;95.40;;;;;;4950715;28;20082;-83
2023/04/25 04:14:23;;;;;;;2.40;0.63;;;5.50;95.40;;;;;;4972908;28;20078;-83
2023/04/25 04:16:52;;;;;;;2.05;0.50;;;5.40;95.40;;;;;;4957380;28;20046;-83
2023/04/25 04:19:20;;;;;;;2.30;0.43;;;5.40;95.50;;;;;;4972895;28;20043;-83
2023/04/25 04:21:55;;;;;;;2.67;1.02;;;5.40;95.50;;;;;;4952375;28;20035;-83
2023/04/25 04:24:26;;;;;;;3.20;1.10;;;5.30;95.50;;;;;;4972225;28;20503;-83
2023/04/25 04:27:00;;;;;;;3.58;0.80;;;5.30;95.50;;;;;;4944156;28;20054;-83
2023/04/25 04:29:36;;;;;;;2.80;1.00;;;5.30;95.50;;;;;;4960947;28;20046;-83
2023/04/25 04:32:15;;;;;;;3.05;0.90;;;5.30;95.50;;;;;;4973559;28;20050;-82
2023/04/25 04:34:42;;;;;;;3.40;0.80;;;5.30;95.80;;;;;;4953640;28;20050;-83
2023/04/25 04:37:12;;;;;;;3.72;1.00;;;5.30;95.50;;;;;;4954960;28;20050;-83
2023/04/25 04:39:43;;;;;;;3.88;1.00;;;5.30;95.50;;;;;;4966121;28;20070;-82
2023/04/25 04:42:27;;;;;;;4.90;0.82;;;5.30;95.50;;;;;;4962977;28;20044;-83
2023/04/25 04:45:15;;;;;;;4.03;1.00;;;5.30;95.40;;;;;;4969714;28;20054;-82
2023/04/25 04:47:56;;;;;;;5.55;1.63;;;5.30;95.40;;;;;;4954294;28;20039;-82
2023/04/25 04:50:48;;;;;;;3.92;1.10;;;5.40;95.30;;;;;;4957959;29;20054;-82
2023/04/25 04:53:27;;;;;;;5.40;1.38;;;5.50;95.30;;;;;;4957345;29;20523;-83
2023/04/25 04:56:07;;;;;;;6.63;1.38;;;5.50;95.20;;;;;;4971684;28;20129;-82
2023/04/25 04:58:53;;;;;;;5.60;1.75;;;5.60;95.20;;;;;;4976477;28;20125;-82
2023/04/25 05:01:20;;;;;;;4.85;1.67;;;5.60;95.10;;;;;;4957243;29;20058;-83
2023/04/25 05:04:00;;;;;;;6.05;1.23;;;5.70;95.00;;;;;;4961538;28;20069;-82
2023/04/25 05:06:47;;;;;;;3.20;0.95;;;5.70;94.90;;;;;;4957587;28;20066;-83
2023/04/25 05:09:35;;;;;;;4.60;1.08;;;5.70;94.80;;;;;;4968415;28;20422;-83
2023/04/25 05:12:20;;;;;;;4.65;0.93;;;5.70;94.90;;;;;;4976034;28;20073;-82
2023/04/25 05:14:54;;;;;;;4.75;1.02;;;5.70;94.90;;;;;;4916788;29;20543;-82
2023/04/25 05:17:40;;;;;;;2.85;0.95;;;5.80;94.90;;;;;;4953033;28;20418;-82
2023/04/25 05:20:26;;;;;;;2.95;0.95;;;5.80;94.90;;;;;;4968843;28;20518;-83
2023/04/25 05:23:02;;;;;;;1.83;0.50;;;5.80;94.90;;;;;;4975732;28;20046;-82
2023/04/25 05:25:49;;;;;;;2.05;0.68;;;5.90;94.90;;;;;;4962667;28;20070;-82
2023/04/25 05:28:42;;;;;;;4.22;0.90;;;5.90;94.80;;;;;;4953382;28;20051;-82
2023/04/25 05:31:38;;;;;;;2.47;0.55;;;6.00;94.80;;;;;;4954387;28;20054;-82
2023/04/25 05:34:12;;;;;;;1.77;0.70;;;6.10;94.70;;;;;;4960360;28;20055;-82
2023/04/25 05:37:00;;;;;;;2.25;0.60;;;6.10;94.70;;;;;;4975372;28;20071;-83
2023/04/25 05:39:30;;;;;;;1.15;0.40;;;6.10;94.60;;;;;;4943890;28;20058;-82
2023/04/25 05:42:15;;;;;;;1.90;0.63;;;6.20;94.60;;;;;;4948436;28;20051;-82
2023/04/25 05:44:48;;;;;;;2.13;0.50;;;6.10;94.60;;;;;;4976720;28;20134;-83
2023/04/25 05:47:33;;;;;;;2.97;0.60;;;6.20;94.60;;;;;;4929754;28;20492;-82
2023/04/25 05:50:07;;;;;;;1.45;0.40;;;6.10;94.60;;;;;;4959862;28;20078;-83
2023/04/25 05:52:47;;;;;;;2.58;0.60;;;6.10;94.60;;;;;;4962819;28;20409;-82
2023/04/25 05:55:24;;;;;;;3.10;0.40;;;6.10;94.60;;;;;;4942692;28;20110;-82
2023/04/25 05:57:53;;;;;;;2.42;0.50;;;6.10;94.60;;;;;;4956387;28;20415;-82
2023/04/25 06:00:22;;;;;;;1.17;0.40;;;6.10;94.60;;;;;;4940480;29;20517;-83
2023/04/25 06:02:50;;;;;;;1.75;0.47;;;6.10;94.60;;;;;;4958840;28;20138;-82
2023/04/25 06:05:18;;;;;;;3.47;0.93;;;6.20;94.70;;;;;;4959405;28;20407;-82
2023/04/25 06:07:47;;;;;;;3.17;0.80;;;6.20;94.60;;;;;;4943275;28;20066;-83
2023/04/25 06:10:14;;;;;;;2.20;0.85;;;6.30;94.60;;;;;;4959004;28;20047;-82
2023/04/25 06:12:42;;;;;;;4.18;0.90;;;6.30;94.50;;;;;;4958980;28;20050;-83
2023/04/25 06:15:10;;;;;;;2.42;0.73;;;6.40;94.40;;;;;;4960127;28;20104;-82
2023/04/25 06:17:56;;;;;;;4.13;1.17;;;6.40;94.40;;;;;;4993973;28;20050;-82
2023/04/25 06:20:24;;;;;;;3.67;0.65;;;6.50;94.40;;;;;;4974350;28;20360;-83
2023/04/25 06:22:53;;;;;;;2.33;0.60;;;6.60;94.30;;;;;;4943606;28;20039;-84
2023/04/25 06:25:28;;;;;;;2.28;0.70;;;6.70;94.20;;;;;;4946255;28;20522;-82
2023/04/25 06:27:55;;;;;;;2.28;0.95;;;6.80;94.20;;;;;;4961134;28;20523;-83
2023/04/25 06:30:24;;;;;;;2.00;0.60;;;6.90;94.10;;;;;;4958658;28;20518;-83
2023/04/25 06:32:58;;;;;;;2.53;0.65;;;7.00;93.90;;;;;;4956068;28;20141;-83
2023/04/25 06:35:34;;;;;;;1.55;0.50;;;7.00;93.80;;;;;;4958317;28;20134;-83
2023/04/25 06:38:01;;;;;;;2.72;0.47;;;7.10;93.80;;;;;;4958620;28;20149;-83
2023/04/25 06:40:30;;;;;;;1.95;0.50;;;7.10;93.80;;;;;;4958693;28;20505;-83
2023/04/25 06:43:00;;;;;;;2.15;0.60;;;7.20;93.80;;;;;;4950011;28;20043;-83
2023/04/25 06:45:56;;;;;;;2.15;0.50;;;7.30;93.80;;;;;;4943079;28;20047;-82
2023/04/25 06:48:27;;;;;;;1.40;0.50;;;7.40;93.70;;;;;;4954797;29;20134;-83
2023/04/25 06:50:56;;;;;;;1.90;0.40;;;7.40;93.60;;;;;;4941082;28;20082;-83
2023/04/25 06:53:24;;;;;;;3.15;0.60;;;7.50;93.50;;;;;;4942729;28;20047;-82
2023/04/25 06:55:57;;;;;;;2.45;0.57;;;7.60;93.40;;;;;;4925253;29;20047;-83
2023/04/25 06:58:29;;;;;;;1.35;0.50;;;7.60;93.30;;;;;;4961106;28;20051;-87
2023/04/25 07:01:08;;;;;;;2.25;0.40;;;7.70;93.30;;;;;;4953040;29;20984;-84
2023/04/25 07:03:37;;;;;;;2.33;0.70;;;7.80;93.20;;;;;;4958239;28;20380;-83
2023/04/25 07:06:10;;;;;;;2.20;0.30;;;7.90;93.10;;;;;;4960475;28;20077;-83
2023/04/25 07:08:37;;;;;;;1.70;0.50;;;8.00;93.00;;;;;;4958050;28;20422;-83
2023/04/25 07:11:05;;;;;;;2.05;0.50;;;8.00;93.00;;;;;;4973661;28;20126;-82
2023/04/25 07:13:32;;;;;;;3.95;0.50;;;8.00;92.90;;;;;;4953675;28;20046;-87
2023/04/25 07:16:00;;;;;;;1.88;0.60;;;7.90;92.90;;;;;;4958315;28;20051;-86
2023/04/25 07:18:32;;;;;;;2.92;0.63;;;7.80;93.00;;;;;;4974234;28;20046;-85
2023/04/25 07:21:00;;;;;;;2.35;0.50;;;7.80;92.90;;;;;;4974297;28;20046;-86
2023/04/25 07:23:28;;;;;;;2.53;0.70;;;7.90;92.90;;;;;;4973982;28;20062;-86
2023/04/25 07:25:58;;;;;;;2.78;0.68;;;8.00;92.80;;;;;;4974311;28;20396;-85
2023/04/25 07:28:36;;;;;;;9.20;1.30;;;8.10;92.60;;;;;;4958625;28;20069;-86
2023/04/25 07:31:08;;;;;;;3.17;1.00;;;8.10;92.40;;;;;;4957589;28;20043;-85
2023/04/25 07:33:38;;;;;;;2.70;0.75;;;8.30;92.30;;;;;;4942437;28;20507;-87
2023/04/25 07:36:12;;;;;;;4.25;0.77;;;8.50;92.20;;;;;;4958701;28;20053;-85
2023/04/25 07:38:39;;;;;;;3.13;0.82;;;8.90;92.00;;;;;;4958290;28;20062;-85
2023/04/25 07:41:07;;;;;;;2.75;0.85;;;9.10;91.60;;;;;;4973822;28;20089;-85
2023/04/25 07:43:35;;;;;;;2.40;0.43;;;9.20;91.50;;;;;;4958005;28;20043;-86
2023/04/25 07:46:16;;;;;;;2.90;0.82;;;9.40;91.50;;;;;;4944673;28;20085;-86
2023/04/25 07:48:44;;;;;;;3.05;0.77;;;9.50;91.30;;;;;;4966386;28;20044;-85
2023/04/25 07:51:11;;;;;;;2.17;0.60;;;9.40;91.20;;;;;;4946360;28;20107;-85
2023/04/25 07:53:40;;;;;;;4.10;0.57;;;9.40;91.10;;;;;;4973849;28;20046;-85
2023/04/25 07:56:12;;;;;;;3.47;0.68;;;9.50;91.10;;;;;;4958356;28;20074;-84
2023/04/25 07:58:44;;;;;;;2.30;0.40;;;9.50;90.80;;;;;;4958034;28;20522;-83
2023/04/25 08:01:14;;;;;;;3.53;0.60;;;9.40;90.80;;;;;;4973445;28;20066;-82
2023/04/25 08:04:06;;;;;;;1.23;0.50;;;9.40;90.90;;;;;;4973568;28;20526;-80
2023/04/25 08:06:47;;;;;;;1.95;0.40;;;9.40;90.80;;;;;;4961013;28;20051;-82
2023/04/25 08:09:29;;;;;;;3.80;0.50;;;9.40;90.70;;;;;;4937622;28;20047;-84
2023/04/25 08:11:57;;;;;;;4.55;0.50;;;9.40;90.60;;;;;;4955779;28;20058;-84
2023/04/25 08:14:36;;;;;;;5.90;0.90;;;9.30;90.50;;;;;;4942923;28;20078;-84
2023/04/25 08:17:05;;;;;;;6.43;1.10;;;9.20;90.50;;;;;;4945523;28;20043;-83
2023/04/25 08:19:35;;;;;;;2.80;0.50;;;9.30;90.30;;;;;;4960244;28;20069;-84
2023/04/25 08:22:10;;;;;;;3.20;0.60;;;9.40;90.10;;;;;;4977231;28;20073;-83
2023/04/25 08:24:52;;;;;;;2.90;0.50;;;9.50;89.30;;;;;;4977426;28;20047;-84
2023/04/25 08:27:22;;;;;;;5.07;0.60;;;9.50;88.30;;;;;;4976830;28;20038;-84
2023/04/25 08:29:58;;;;;;;4.45;0.52;;;9.50;86.60;;;;;;4958293;28;20047;-85
2023/04/25 08:32:27;;;;;;;1.52;0.50;;;9.60;87.10;;;;;;4976595;28;20054;-81
2023/04/25 08:35:26;;;;;;;3.20;0.40;;;9.90;87.10;;;;;;4964606;28;20134;-81
2023/04/25 08:37:53;;;;;;;1.13;0.40;;;10.40;86.10;;;;;;4960968;28;20050;-85
2023/04/25 08:40:26;;;;;;;4.53;0.40;;;10.70;85.50;;;;;;4961522;28;20043;-85
2023/04/25 08:43:03;;;;;;;2.55;0.28;;;10.80;84.70;;;;;;4962177;28;20047;-85
2023/04/25 08:45:43;;;;;;;4.78;0.50;;;10.60;84.30;;;;;;4958454;28;20043;-84
2023/04/25 08:48:16;;;;;;;4.93;0.60;;;10.50;83.80;;;;;;4983021;28;20078;-82
2023/04/25 08:50:55;;;;;;;1.80;0.35;;;10.20;83.50;;;;;;4971758;28;20044;-85
2023/04/25 08:53:28;;;;;;;2.03;0.40;;;10.10;84.20;;;;;;4976337;28;20085;-87
2023/04/25 08:56:05;;;;;;;2.15;0.30;;;10.10;84.00;;;;;;4957095;28;20053;-87
2023/04/25 08:58:36;;;;;;;4.05;0.40;;;10.10;83.60;;;;;;4976890;28;20403;-86
2023/04/25 09:01:04;;;;;;;2.40;0.20;;;10.20;83.20;;;;;;4960458;28;20102;-85
2023/04/25 09:03:41;;;;;;;5.68;0.52;;;10.20;83.10;;;;;;4961881;28;20125;-86
2023/04/25 09:06:13;;;;;;;1.23;0.20;;;10.20;83.10;;;;;;4960694;28;20051;-87
2023/04/25 09:08:41;;;;;;;6.38;0.40;;;10.10;83.50;;;;;;4960888;28;20046;-86
2023/04/25 09:11:16;;;;;;;2.83;0.82;;;10.00;83.50;;;;;;4952243;29;20055;-86
2023/04/25 09:13:45;;;;;;;1.50;0.28;;;10.00;83.70;;;;;;4965146;28;20046;-85
2023/04/25 09:16:21;;;;;;;2.30;0.60;;;9.90;83.70;;;;;;4961982;28;20054;-87
2023/04/25 09:19:39;;;;;;;2.63;0.40;;;9.90;83.90;;;;;;4967836;28;20051;-86
2023/04/25 09:22:25;;;;;;;4.38;0.40;;;9.80;82.50;;;;;;4976281;28;20059;-86
2023/04/25 09:24:57;;;;;;;2.28;0.22;;;9.80;82.90;;;;;;4959909;28;20091;-86
2023/04/25 09:27:28;;;;;;;1.55;0.20;;;9.90;82.50;;;;;;4945879;28;20415;-86
2023/04/25 09:30:04;;;;;;;1.15;0.20;;;10.00;81.60;;;;;;4959975;28;20138;-86
2023/04/25 09:32:50;;;;;;;4.45;0.30;;;10.00;81.20;;;;;;4963179;28;20455;-88
2023/04/25 09:35:28;;;;;;;1.40;0.30;;;10.10;80.70;;;;;;4960065;28;20058;-87
2023/04/25 09:37:59;;;;;;;2.95;0.30;;;10.10;80.50;;;;;;4960619;28;20542;-87
2023/04/25 09:40:47;;;;;;;4.45;0.95;;;10.10;80.20;;;;;;4962622;28;20062;-85
2023/04/25 09:43:27;;;;;;;4.32;0.45;;;9.90;77.40;;;;;;4957683;28;20412;-84
2023/04/25 09:45:59;;;;;;;2.90;0.40;;;9.60;75.70;;;;;;4940745;29;20058;-84
2023/04/25 09:48:28;;;;;;;1.67;0.25;;;9.50;76.60;;;;;;4925110;29;20500;-85
2023/04/25 09:51:10;;;;;;;2.72;0.30;;;9.70;77.40;;;;;;4963980;28;20134;-84
2023/04/25 09:53:50;;;;;;;1.73;0.30;;;10.00;77.50;;;;;;4975280;28;20463;-85
2023/04/25 09:56:37;;;;;;;1.83;0.30;;;10.30;75.90;;;;;;4960731;28;20495;-82
2023/04/25 09:59:08;;;;;;;4.50;0.95;;;10.50;75.10;;;;;;4959422;28;20053;-85
2023/04/25 10:01:41;;;;;;;1.08;0.20;;;10.70;74.90;;;;;;4975118;28;20078;-85
2023/04/25 10:04:30;;;;;;;2.60;0.20;;;10.90;74.60;;;;;;4974893;28;20049;-84
2023/04/25 10:07:06;;;;;;;1.52;0.20;;;11.20;75.00;;;;;;4976394;28;20053;-84
2023/04/25 10:09:39;;;;;;;;;;;11.60;74.70;;;;;;4959810;28;20059;-84
2023/04/25 10:12:11;;;;;;;0.88;0.15;;;11.90;73.60;;;;;;4975011;28;19921;-85
2023/04/25 10:14:50;;;;;;;2.38;0.30;;;11.90;73.70;;;;;;4943418;28;20051;-82
2023/04/25 10:17:19;;;;;;;2.17;0.20;;;11.80;73.40;;;;;;4974546;28;20061;-83
2023/04/25 10:19:49;;;;;;;2.83;0.22;;;11.70;73.20;;;;;;4974603;28;20066;-81
2023/04/25 10:22:39;;;;;;;2.03;0.40;;;11.50;73.70;;;;;;4974054;28;20035;-84
2023/04/25 10:25:09;;;;;;;3.10;0.50;;;11.40;71.40;;;;;;4990873;28;20065;-82
2023/04/25 10:27:37;;;;;;;3.30;0.40;;;11.30;72.10;;;;;;4971564;28;20079;-84
2023/04/25 10:30:15;;;;;;;0.98;0.20;;;11.30;71.10;;;;;;4971317;28;20054;-85
2023/04/25 10:32:43;;;;;;;2.50;0.90;;;11.70;71.50;;;;;;4980227;28;20129;-85
2023/04/25 10:35:24;;;;;;;2.10;0.60;;;11.70;69.70;;;;;;4973270;28;20078;-84
2023/04/25 10:38:18;;;;;;;2.13;0.45;;;11.50;69.10;;;;;;4977659;28;20077;-96
2023/04/25 10:41:15;;;;;;;2.85;0.38;;;11.30;68.70;;;;;;4957656;28;20039;-83
2023/04/25 10:43:45;;;;;;;3.70;0.50;;;10.90;68.70;;;;;;4955833;28;20058;-85
2023/04/25 10:46:29;;;;;;;4.78;0.50;;;10.50;69.50;;;;;;4986311;28;20042;-86
2023/04/25 10:48:59;;;;;;;3.15;0.30;;;10.30;70.90;;;;;;4955816;28;20515;-84
2023/04/25 10:51:33;;;;;;;3.92;0.47;;;10.30;71.90;;;;;;4963649;28;20038;-84
2023/04/25 10:54:24;;;;;;;4.47;0.40;;;10.40;72.50;;;;;;4934591;28;20053;-87
2023/04/25 10:56:53;;;;;;;4.55;0.52;;;10.50;73.00;;;;;;4958986;28;20509;-83
2023/04/25 10:59:25;;;;;;;3.03;0.30;;;10.60;72.80;;;;;;4958321;28;20491;-88
2023/04/25 11:02:12;;;;;;;3.03;0.35;;;10.80;73.00;;;;;;4960006;28;20043;-86
2023/04/25 11:04:41;;;;;;;2.08;0.32;;;11.00;72.50;;;;;;4940856;28;20106;-85
2023/04/25 11:07:31;;;;;;;1.52;0.30;;;11.10;72.70;;;;;;4952803;28;20039;-86
2023/04/25 11:10:03;;;;;;;2.42;0.70;;;11.30;72.60;;;;;;4966475;28;20101;-87
2023/04/25 11:12:32;;;;;;;3.03;0.30;;;11.30;72.10;;;;;;4974061;28;20073;-83
2023/04/25 11:15:09;;;;;;;2.67;0.40;;;11.30;72.10;;;;;;4958358;28;20055;-87
2023/04/25 11:17:53;;;;;;;4.28;0.40;;;11.40;72.10;;;;;;4958343;28;20051;-90
2023/04/25 11:32:39;;;;;;;1.63;0.30;;;12.10;69.50;;;;;;4917359;29;20068;-88
2023/04/25 11:35:12;;;;;;;0.52;0.15;;;12.30;69.50;;;;;;4925967;28;20146;-85
2023/04/25 11:37:44;;;;;;;1.02;0.20;;;13.00;68.10;;;;;;4957815;28;20047;-89
2023/04/25 11:40:18;;;;;;;1.58;0.40;;;13.70;66.90;;;;;;4957958;28;20086;-88
2023/04/25 11:42:47;;;;;;;1.55;0.38;;;14.30;65.30;;;;;;4973613;28;20097;-89
2023/04/25 11:45:30;;;;;;;0.93;0.20;;;14.60;64.10;;;;;;4957560;28;20078;-84
2023/04/25 11:48:06;;;;;;;2.88;0.32;;;14.70;62.90;;;;;;4958322;28;20054;-93
2023/04/25 11:50:53;;;;;;;1.73;0.20;;;14.50;62.50;;;;;;4958373;28;20047;-93
2023/04/25 11:53:20;;;;;;;0.90;0.10;;;14.70;62.30;;;;;;4973626;28;20054;-89
2023/04/25 11:55:47;;;;;;;1.98;0.22;;;14.90;62.60;;;;;;4973825;28;20050;-88
2023/04/25 11:58:38;;;;;;;1.67;0.22;;;15.00;62.20;;;;;;4960309;28;20137;-91
2023/04/25 12:01:05;;;;;;;1.38;0.20;;;15.00;62.80;;;;;;4957641;28;20058;-86
2023/04/25 12:03:45;;;;;;;4.03;0.30;;;15.00;62.00;;;;;;4958399;28;20051;-85
2023/04/25 12:06:17;;;;;;;2.30;0.30;;;15.00;61.40;;;;;;4957490;28;20075;-83
2023/04/25 12:09:15;;;;;;;1.48;0.40;;;15.10;61.20;;;;;;4973008;28;20480;-82
2023/04/25 12:12:05;;;;;;;1.92;0.35;;;14.40;60.70;;;;;;4957832;28;20081;-83
2023/04/25 12:14:35;;;;;;;2.80;0.35;;;13.60;60.40;;;;;;4973133;28;20079;-83
2023/04/25 12:17:11;;;;;;;3.67;0.60;;;13.10;60.70;;;;;;4958092;28;20116;-89
2023/04/25 12:19:41;;;;;;;1.48;0.20;;;12.60;61.40;;;;;;4973973;28;20047;-86
2023/04/25 12:22:23;;;;;;;2.80;0.50;;;12.10;61.10;;;;;;4958284;28;20472;-87
2023/04/25 12:24:53;;;;;;;1.08;0.25;;;11.60;62.90;;;;;;4958529;28;20050;-91
2023/04/25 12:27:21;;;;;;;1.27;0.20;;;11.30;63.70;;;;;;4957452;28;20050;-85
2023/04/25 12:29:57;;;;;;;2.58;0.30;;;11.10;64.80;;;;;;4958331;28;20047;-88
2023/04/25 12:32:30;;;;;;;2.15;0.40;;;10.70;65.20;;;;;;4957980;28;20051;-88
2023/04/25 12:34:57;;;;;;;1.33;0.30;;;10.40;66.50;;;;;;4973220;28;20110;-80
2023/04/25 12:37:25;;;;;;;1.05;0.20;;;10.30;67.30;;;;;;4956646;28;20042;-81
2023/04/25 12:39:55;;;;;;;2.03;0.20;;;10.30;67.50;;;;;;4957330;28;20051;-85
2023/04/25 12:42:54;;;;;;;1.45;0.10;;;10.40;67.50;;;;;;4975083;28;20042;-88
2023/04/25 12:45:21;;;;;;;4.07;0.30;;;10.60;67.10;;;;;;4955388;28;20051;-83
2023/04/25 12:47:50;;;;;;;2.03;0.30;;;10.60;66.40;;;;;;4968727;28;20035;-81
2023/04/25 12:50:17;;;;;;;1.38;0.30;;;10.80;66.70;;;;;;4972906;28;20074;-86
2023/04/25 12:54:02;;;;;;;2.55;0.10;;;11.00;66.70;;;;;;4950121;29;20503;-94
2023/04/25 12:56:41;;;;;;;2.72;0.20;;;11.30;66.50;;;;;;4971242;28;20550;-95
2023/04/25 12:59:09;;;;;;;2.38;0.28;;;11.50;66.10;;;;;;4972458;28;20051;-91
2023/04/25 13:02:38;;;;;;;1.00;0.20;;;11.70;65.70;;;;;;4957715;28;20046;-89
2023/04/25 13:05:07;;;;;;;4.20;0.22;;;11.90;65.20;;;;;;4932827;28;20538;-85
2023/04/25 13:07:44;;;;;;;1.05;0.30;;;11.90;65.00;;;;;;4957001;28;20039;-91
2023/04/25 13:10:18;;;;;;;2.80;0.50;;;12.00;65.10;;;;;;4955622;28;20042;-89
2023/04/25 13:12:58;;;;;;;2.80;0.50;;;12.20;64.60;;;;;;4959120;28;20059;-93
2023/04/25 13:15:32;;;;;;;2.80;0.40;;;12.20;63.30;;;;;;4976160;28;20043;-89
2023/04/25 13:18:00;;;;;;;1.42;0.20;;;12.30;64.50;;;;;;4976366;28;20116;-91
2023/04/25 13:20:27;;;;;;;3.65;0.50;;;12.50;63.50;;;;;;4976009;28;20047;-89
2023/04/25 13:23:32;;;;;;;3.20;0.63;;;12.60;61.20;;;;;;4960282;28;20137;-96
2023/04/25 13:26:15;;;;;;;3.47;0.70;;;12.30;60.80;;;;;;4976780;28;20610;-91
2023/04/25 13:30:17;;;;;;;0.93;0.30;;;11.80;62.40;;;;;;4915197;29;20531;-92
2023/04/25 13:32:43;;;;;;;1.67;0.38;;;11.50;63.50;;;;;;4902304;29;20535;-89
2023/04/25 13:39:18;;;;;;;1.65;0.22;;;11.40;62.20;;;;;;4936870;29;20036;-84
2023/04/25 13:41:45;;;;;;;3.53;0.65;;;11.40;60.00;;;;;;4921032;29;20087;-91
2023/04/25 13:44:12;;;;;;;1.83;0.55;;;11.40;61.00;;;;;;4920999;29;20102;-91
2023/04/25 13:46:40;;;;;;;0.93;0.10;;;11.50;61.70;;;;;;4905600;29;20047;-88